Time;durP1;ratioP1;P1;durP2;ratioP2;P2;SDS_P1;SDS_P2;PMS_P1;PMS_P2;Temp;Humidity;BMP_temperature;BMP_pressure;BME280_temperature;BME280_humidity;BME280_pressure;Samples;Min_cycle;Max_cycle;Signal;HPM_P1;HPM_P2
2023/02/18 00:01:17;;;;;;;35.90;10.68;;;;;;;-13.26;55.98;99328.13;4774944;30;20114;-76
2023/02/18 00:03:42;;;;;;;24.13;9.90;;;;;;;-13.25;56.40;99324.69;4789969;30;20423;-76
2023/02/18 00:06:30;;;;;;;23.13;10.35;;;;;;;-13.17;56.53;99320.50;4790898;30;20047;-76
2023/02/18 00:09:00;;;;;;;24.65;10.50;;;;;;;-13.13;56.45;99324.81;4790107;30;20071;-75
2023/02/18 00:11:27;;;;;;;29.85;10.35;;;;;;;-13.19;56.05;99322.19;4774709;30;20051;-76
2023/02/18 00:13:56;;;;;;;27.83;10.38;;;;;;;-13.21;56.21;99323.88;4774681;30;20080;-76
2023/02/18 00:16:23;;;;;;;25.75;10.38;;;;;;;-13.18;56.04;99325.63;4791007;30;20384;-76
2023/02/18 00:18:50;;;;;;;28.50;11.13;;;;;;;-13.20;56.60;99320.44;4774538;30;20512;-76
2023/02/18 00:21:16;;;;;;;26.27;10.63;;;;;;;-13.22;56.55;99319.56;4759497;30;20566;-76
2023/02/18 00:23:41;;;;;;;20.80;9.80;;;;;;;-13.35;56.53;99312.53;4790029;30;20059;-76
2023/02/18 00:26:11;;;;;;;29.52;11.20;;;;;;;-13.30;56.13;99313.50;4790522;30;20051;-77
2023/02/18 00:28:38;;;;;;;30.88;10.82;;;;;;;-13.28;56.06;99304.06;4789618;30;20066;-76
2023/02/18 00:31:12;;;;;;;24.75;10.60;;;;;;;-13.31;56.38;99304.91;4789266;30;20385;-75
2023/02/18 00:33:39;;;;;;;20.38;10.45;;;;;;;-13.32;56.31;99307.44;4789267;30;20412;-76
2023/02/18 00:36:09;;;;;;;22.50;10.63;;;;;;;-13.33;56.64;99310.88;4789649;29;20050;-75
2023/02/18 00:38:35;;;;;;;32.42;10.90;;;;;;;-13.31;56.27;99314.31;4774193;30;20066;-76
2023/02/18 00:41:02;;;;;;;27.02;11.55;;;;;;;-13.38;56.18;99309.94;4789650;30;20091;-77
2023/02/18 00:43:28;;;;;;;22.05;9.70;;;;;;;-13.34;56.63;99310.00;4774430;30;20564;-76
2023/02/18 00:45:54;;;;;;;23.55;10.50;;;;;;;-13.31;56.39;99316.88;4774098;30;20070;-75
2023/02/18 00:48:20;;;;;;;28.52;10.95;;;;;;;-13.32;56.44;99317.72;4790117;30;20051;-77
2023/02/18 00:50:46;;;;;;;25.60;10.05;;;;;;;-13.32;56.22;99310.88;4788901;30;20051;-75
2023/02/18 00:53:12;;;;;;;34.78;11.05;;;;;;;-13.36;56.19;99313.38;4759498;30;20051;-76
2023/02/18 00:55:39;;;;;;;30.23;10.93;;;;;;;-13.35;56.57;99322.81;4789240;30;20120;-77
2023/02/18 00:58:05;;;;;;;26.33;11.32;;;;;;;-13.39;56.19;99305.63;4773476;30;20519;-76
2023/02/18 01:00:31;;;;;;;27.75;11.90;;;;;;;-13.39;56.63;99305.63;4788776;30;20058;-76
2023/02/18 01:02:56;;;;;;;34.22;11.93;;;;;;;-13.43;56.75;99296.13;4774098;30;20059;-76
2023/02/18 01:05:22;;;;;;;31.83;10.45;;;;;;;-13.36;56.66;99305.66;4773724;30;20055;-76
2023/02/18 01:07:48;;;;;;;23.55;11.25;;;;;;;-13.42;56.63;99305.56;4773952;30;20572;-76
2023/02/18 01:10:14;;;;;;;29.27;11.80;;;;;;;-13.48;56.38;99296.94;4788698;30;20051;-76
2023/02/18 01:12:40;;;;;;;35.38;11.00;;;;;;;-13.57;56.57;99301.94;4773879;30;20528;-75
2023/02/18 01:15:07;;;;;;;27.52;11.10;;;;;;;-13.57;56.64;99298.53;4788850;30;20039;-76
2023/02/18 01:17:33;;;;;;;24.33;10.90;;;;;;;-13.60;56.58;99311.31;4773712;30;20565;-76
2023/02/18 01:19:59;;;;;;;29.20;10.20;;;;;;;-13.65;56.69;99313.81;4788494;29;20063;-76
2023/02/18 01:22:25;;;;;;;23.83;11.13;;;;;;;-13.61;56.86;99304.41;4758994;30;20065;-76
2023/02/18 01:24:51;;;;;;;24.20;11.43;;;;;;;-13.60;56.89;99296.75;4773993;30;20389;-76
2023/02/18 01:27:18;;;;;;;24.50;10.13;;;;;;;-13.59;57.10;99306.19;4788462;30;20047;-76
2023/02/18 01:29:44;;;;;;;26.80;10.77;;;;;;;-13.54;57.02;99304.56;4789322;30;20054;-76
2023/02/18 01:32:09;;;;;;;24.58;11.23;;;;;;;-13.59;56.74;99290.75;4773350;30;20047;-76
2023/02/18 01:34:35;;;;;;;28.00;10.45;;;;;;;-13.54;57.20;99303.69;4773364;30;20493;-76
2023/02/18 01:37:01;;;;;;;26.90;11.85;;;;;;;-13.50;57.15;99305.44;4773258;30;20496;-76
2023/02/18 01:39:27;;;;;;;32.90;12.18;;;;;;;-13.51;57.30;99296.88;4788163;30;20404;-76
2023/02/18 01:41:52;;;;;;;36.33;11.93;;;;;;;-13.66;57.26;99301.78;4789292;30;20043;-76
2023/02/18 01:44:22;;;;;;;31.38;11.48;;;;;;;-13.65;57.07;99298.41;4758376;30;20135;-77
2023/02/18 01:46:48;;;;;;;25.55;10.70;;;;;;;-13.60;57.62;99307.03;4788015;30;20165;-76
2023/02/18 01:49:38;;;;;;;21.60;11.32;;;;;;;-13.59;57.58;99298.47;4772944;30;20076;-77
2023/02/18 01:52:11;;;;;;;29.90;10.10;;;;;;;-13.65;57.02;99285.56;4773329;30;20078;-77
2023/02/18 01:54:46;;;;;;;19.50;9.68;;;;;;;-13.53;57.55;99302.88;4773091;30;20130;-77
2023/02/18 01:57:17;;;;;;;25.45;9.90;;;;;;;-13.53;57.36;99298.56;4787895;30;20051;-76
2023/02/18 01:59:47;;;;;;;24.42;9.70;;;;;;;-13.56;57.40;99293.38;4787965;30;20062;-77
2023/02/18 02:02:18;;;;;;;25.45;10.40;;;;;;;-13.58;57.45;99295.06;4789272;30;20147;-77
2023/02/18 02:04:44;;;;;;;20.42;10.90;;;;;;;-13.56;57.34;99293.38;4788841;30;20058;-77
2023/02/18 02:07:10;;;;;;;23.30;10.48;;;;;;;-13.57;57.41;99286.53;4787664;30;20054;-77
2023/02/18 02:09:39;;;;;;;22.08;10.95;;;;;;;-13.58;57.15;99289.91;4786658;29;20515;-76
2023/02/18 02:12:18;;;;;;;27.20;10.70;;;;;;;-13.61;57.40;99286.44;4758319;30;20048;-75
2023/02/18 02:14:52;;;;;;;;;;;;;;;-13.57;57.63;99294.25;4773320;30;20059;-75
2023/02/18 02:17:55;;;;;;;26.15;8.95;;;;;;;-13.62;57.52;99293.28;4788069;30;19921;-76
2023/02/18 02:20:43;;;;;;;24.38;9.73;;;;;;;-13.63;57.82;99290.69;4759156;30;20055;-77
2023/02/18 02:23:52;;;;;;;21.65;10.05;;;;;;;-13.64;57.56;99294.13;4787880;30;20063;-77
2023/02/18 02:26:24;;;;;;;;;;;;;;;-13.65;57.22;99276.94;4772972;30;20138;-77
2023/02/18 02:29:35;;;;;;;18.42;8.77;;;;;;;-13.74;57.30;99282.81;4788888;30;19925;-75
2023/02/18 02:32:14;;;;;;;22.77;9.52;;;;;;;-13.81;57.83;99273.28;4757784;30;20051;-77
2023/02/18 02:34:46;;;;;;;34.05;9.68;;;;;;;-13.80;57.49;99292.97;4772311;30;20607;-77
2023/02/18 02:37:26;;;;;;;20.05;10.25;;;;;;;-13.85;57.42;99279.22;4772694;30;20058;-77
2023/02/18 02:40:17;;;;;;;17.10;8.80;;;;;;;-13.81;57.96;99291.25;4787551;30;20051;-76
2023/02/18 02:43:05;;;;;;;24.65;10.82;;;;;;;-13.84;57.51;99283.50;4772418;30;20051;-76
2023/02/18 02:45:40;;;;;;;18.42;9.38;;;;;;;-13.80;58.00;99282.72;4757942;30;20146;-76
2023/02/18 02:48:15;;;;;;;23.80;10.13;;;;;;;-13.80;57.88;99298.13;4757570;30;20082;-76
2023/02/18 02:51:03;;;;;;;28.15;10.68;;;;;;;-13.80;58.01;99299.03;4772035;30;20146;-77
2023/02/18 02:53:33;;;;;;;23.98;10.73;;;;;;;-13.80;57.66;99296.44;4789180;29;20096;-76
2023/02/18 02:55:59;;;;;;;;;;;;;;;-13.78;58.14;99306.75;4790186;29;20047;-76
2023/02/18 02:58:26;;;;;;;18.70;9.25;;;;;;;-13.83;58.07;99292.97;4778603;30;19925;-75
2023/02/18 03:01:09;;;;;;;24.50;10.18;;;;;;;-13.77;58.21;99293.03;4787262;30;20080;-76
2023/02/18 03:03:57;;;;;;;26.83;10.48;;;;;;;-13.75;58.01;99289.66;4786915;30;20060;-76
2023/02/18 03:06:47;;;;;;;23.73;10.40;;;;;;;-13.74;58.02;99300.81;4771775;30;20070;-77
2023/02/18 03:09:44;;;;;;;21.17;11.05;;;;;;;-13.73;57.63;99284.53;4771982;30;20057;-76
2023/02/18 03:12:34;;;;;;;30.65;9.95;;;;;;;-13.78;58.00;99293.88;4788234;30;20084;-76
2023/02/18 03:15:09;;;;;;;22.70;9.45;;;;;;;-13.80;57.65;99290.41;4742369;30;20146;-78
2023/02/18 03:17:56;;;;;;;20.27;10.00;;;;;;;-13.84;57.53;99281.81;4771797;30;20055;-79
2023/02/18 03:20:51;;;;;;;17.13;9.27;;;;;;;-13.79;57.64;99279.31;4771555;30;20581;-78
2023/02/18 03:23:26;;;;;;;19.50;10.25;;;;;;;-13.77;58.15;99282.75;4771501;30;20070;-77
2023/02/18 03:25:54;;;;;;;28.58;11.02;;;;;;;-13.80;57.72;99275.00;4786636;30;20426;-77
2023/02/18 03:28:23;;;;;;;24.23;9.93;;;;;;;-13.78;57.74;99269.06;4771766;30;20059;-75
2023/02/18 03:31:06;;;;;;;31.55;12.20;;;;;;;-13.65;57.67;99277.84;4771299;30;20047;-75
2023/02/18 03:33:39;;;;;;;24.42;10.57;;;;;;;-13.62;57.69;99287.28;4772326;30;20044;-78
2023/02/18 03:36:06;;;;;;;22.67;11.18;;;;;;;-13.61;57.65;99279.63;4788096;30;20066;-76
2023/02/18 03:38:44;;;;;;;45.28;12.80;;;;;;;-13.53;57.85;99288.31;4787941;30;20518;-78
2023/02/18 03:41:11;;;;;;;28.30;11.02;;;;;;;-13.45;57.72;99279.84;4758274;30;20059;-76
2023/02/18 03:43:40;;;;;;;32.00;10.52;;;;;;;-13.39;57.67;99285.06;4756709;30;20055;-77
2023/02/18 03:46:06;;;;;;;29.63;11.20;;;;;;;-13.37;58.23;99289.38;4771629;30;20054;-78
2023/02/18 03:48:35;;;;;;;27.90;8.50;;;;;;;-13.38;58.06;99281.66;4756719;30;20465;-78
2023/02/18 03:51:04;;;;;;;24.98;10.77;;;;;;;-13.40;57.91;99268.75;4757098;30;20053;-77
2023/02/18 03:53:30;;;;;;;15.40;9.75;;;;;;;-13.28;57.63;99293.78;4771394;30;20051;-77
2023/02/18 03:55:56;;;;;;;22.00;10.02;;;;;;;-13.36;57.68;99293.66;4756442;30;20543;-79
2023/02/18 03:58:22;;;;;;;24.65;10.18;;;;;;;-13.32;57.63;99290.31;4771445;30;20078;-78
2023/02/18 04:00:48;;;;;;;19.52;10.15;;;;;;;-13.36;57.89;99285.09;4771748;30;20043;-80
2023/02/18 04:03:17;;;;;;;18.70;9.80;;;;;;;-13.31;57.61;99288.59;4756798;30;20177;-79
2023/02/18 04:05:45;;;;;;;18.85;8.57;;;;;;;-13.32;57.44;99287.72;4771163;30;20043;-80
2023/02/18 04:08:14;;;;;;;23.83;11.18;;;;;;;-13.25;57.63;99278.41;4756308;30;20066;-79
2023/02/18 04:10:40;;;;;;;33.90;10.18;;;;;;;-13.24;57.21;99283.59;4779780;30;20055;-79
2023/02/18 04:13:06;;;;;;;24.52;10.60;;;;;;;-13.19;57.40;99281.03;4784368;29;20211;-78
2023/02/18 04:15:33;;;;;;;27.33;11.05;;;;;;;-13.16;57.07;99282.75;4780563;30;20050;-81
2023/02/18 04:18:02;;;;;;;24.83;10.10;;;;;;;-13.16;57.51;99273.38;4771076;30;20059;-79
2023/02/18 04:20:28;;;;;;;28.00;10.38;;;;;;;-13.10;56.91;99283.72;4771347;30;20055;-77
2023/02/18 04:22:54;;;;;;;19.42;10.10;;;;;;;-13.15;57.04;99282.81;4785964;30;20065;-75
2023/02/18 04:25:20;;;;;;;28.50;11.88;;;;;;;-13.14;56.86;99287.09;4757053;30;20104;-75
2023/02/18 04:27:46;;;;;;;35.40;10.45;;;;;;;-13.11;57.07;99281.13;4787550;30;20055;-78
2023/02/18 04:30:12;;;;;;;27.85;9.32;;;;;;;-13.21;57.02;99285.28;4792920;29;20423;-77
2023/02/18 04:32:38;;;;;;;23.92;10.73;;;;;;;-13.15;56.67;99280.22;4790847;29;20076;-79
2023/02/18 04:35:06;;;;;;;19.25;9.48;;;;;;;-13.05;57.25;99289.81;4777382;29;20407;-78
2023/02/18 04:37:32;;;;;;;36.90;10.82;;;;;;;-12.90;57.81;99298.53;4792344;29;20065;-84
2023/02/18 04:39:58;;;;;;;27.77;11.52;;;;;;;-12.70;57.96;99291.09;4777574;29;20054;-78
2023/02/18 04:42:24;;;;;;;19.95;10.32;;;;;;;-12.52;57.65;99287.03;4808175;29;20047;-78
2023/02/18 04:44:50;;;;;;;20.60;8.88;;;;;;;-12.55;56.27;99288.69;4773862;30;20055;-78
2023/02/18 04:47:16;;;;;;;16.50;8.40;;;;;;;-12.54;56.32;99290.41;4758899;30;20407;-79
2023/02/18 04:49:42;;;;;;;23.52;11.25;;;;;;;-12.67;56.10;99284.28;4776764;29;20062;-77
2023/02/18 04:52:08;;;;;;;23.42;10.90;;;;;;;-12.67;56.10;99294.56;4797905;29;20039;-79
2023/02/18 04:54:33;;;;;;;26.58;10.07;;;;;;;-12.67;56.14;99294.56;4790399;30;20127;-79
2023/02/18 04:56:59;;;;;;;29.35;12.35;;;;;;;-12.43;56.03;99293.13;4773846;30;20047;-80
2023/02/18 04:59:25;;;;;;;12.00;7.40;;;;;;;-12.40;55.56;99293.16;4773963;30;20056;-77
2023/02/18 05:01:51;;;;;;;28.13;10.07;;;;;;;-12.40;55.84;99288.00;4789659;30;20090;-76
2023/02/18 05:04:17;;;;;;;30.33;11.88;;;;;;;-12.12;56.07;99294.28;4788707;30;20133;-78
2023/02/18 05:06:43;;;;;;;26.75;11.00;;;;;;;-12.04;55.53;99298.66;4773645;30;20177;-79
2023/02/18 05:09:10;;;;;;;24.38;10.15;;;;;;;-11.86;55.43;99302.28;4788484;30;20051;-78
2023/02/18 05:11:35;;;;;;;17.45;8.88;;;;;;;-11.74;54.97;99299.75;4788558;30;20047;-77
2023/02/18 05:14:01;;;;;;;28.15;11.55;;;;;;;-11.52;55.06;99293.91;4773825;30;20054;-77
2023/02/18 05:16:27;;;;;;;26.63;10.70;;;;;;;-11.32;54.31;99295.78;4788661;30;20054;-77
2023/02/18 05:18:53;;;;;;;20.77;9.82;;;;;;;-11.21;53.67;99304.44;4789818;30;20055;-77
2023/02/18 05:21:19;;;;;;;32.15;10.52;;;;;;;-11.16;53.61;99297.63;4758561;30;20074;-78
2023/02/18 05:23:45;;;;;;;25.80;11.30;;;;;;;-10.98;53.22;99290.81;4782396;30;20142;-77
2023/02/18 05:26:10;;;;;;;28.30;10.48;;;;;;;-10.90;53.07;99294.31;4789776;30;20047;-79
2023/02/18 05:28:36;;;;;;;23.50;9.50;;;;;;;-10.69;52.70;99299.56;4789640;30;20116;-79
2023/02/18 05:31:02;;;;;;;25.48;11.52;;;;;;;-10.62;52.71;99298.75;4789325;30;20082;-82
2023/02/18 05:33:28;;;;;;;30.95;11.63;;;;;;;-10.38;52.52;99294.50;4776665;29;20074;-78
2023/02/18 05:35:54;;;;;;;36.08;11.15;;;;;;;-10.36;52.10;99292.81;4807331;29;20074;-77
2023/02/18 05:38:20;;;;;;;25.90;12.10;;;;;;;-10.34;51.48;99291.97;4790773;29;20145;-79
2023/02/18 05:40:46;;;;;;;24.90;10.02;;;;;;;-10.26;51.87;99293.72;4773064;30;20047;-77
2023/02/18 05:43:13;;;;;;;26.77;10.80;;;;;;;-10.25;51.68;99291.13;4804266;29;20453;-78
2023/02/18 05:45:39;;;;;;;21.15;10.45;;;;;;;-10.17;51.49;99291.97;4775171;29;20055;-77
2023/02/18 05:48:04;;;;;;;19.00;9.48;;;;;;;-10.29;50.92;99297.13;4776264;29;20495;-79
2023/02/18 05:50:30;;;;;;;29.80;12.00;;;;;;;-10.37;50.90;99297.13;4775832;29;20133;-78
2023/02/18 05:52:56;;;;;;;22.55;10.55;;;;;;;-10.18;51.12;99298.00;4807130;29;20046;-79
2023/02/18 05:55:23;;;;;;;25.08;12.02;;;;;;;-9.88;51.23;99273.06;4760972;29;20137;-77
2023/02/18 05:57:49;;;;;;;30.90;11.13;;;;;;;-9.49;51.17;99286.84;4761081;29;20043;-77
2023/02/18 06:00:16;;;;;;;27.58;11.55;;;;;;;-9.22;49.92;99286.81;4806951;29;20059;-80
2023/02/18 06:02:43;;;;;;;25.05;11.35;;;;;;;-9.59;49.28;99285.97;4790499;29;20508;-79
2023/02/18 06:05:09;;;;;;;23.17;10.65;;;;;;;-9.46;49.84;99281.69;4807116;29;20049;-78
2023/02/18 06:07:36;;;;;;;37.42;10.18;;;;;;;-9.39;49.78;99273.03;4806891;29;20138;-77
2023/02/18 06:10:03;;;;;;;22.98;9.85;;;;;;;-9.26;49.32;99276.47;4807267;29;20378;-79
2023/02/18 06:12:29;;;;;;;33.00;10.98;;;;;;;-9.34;49.71;99273.88;4806535;29;20051;-78
2023/02/18 06:14:55;;;;;;;28.70;11.23;;;;;;;-9.25;49.24;99273.91;4790460;29;20055;-78
2023/02/18 06:17:21;;;;;;;23.67;11.93;;;;;;;-9.20;49.67;99274.75;4790725;29;20043;-80
2023/02/18 06:19:49;;;;;;;18.17;9.13;;;;;;;-9.09;48.66;99279.91;4790336;29;20058;-78
2023/02/18 06:22:15;;;;;;;38.17;12.48;;;;;;;-8.85;49.12;99279.81;4775492;29;20119;-78
2023/02/18 06:24:41;;;;;;;22.40;10.85;;;;;;;-8.51;48.83;99273.66;4775903;29;20043;-79
2023/02/18 06:27:07;;;;;;;21.42;10.65;;;;;;;-8.08;48.49;99272.53;4806398;29;20492;-79
2023/02/18 06:29:34;;;;;;;24.65;10.60;;;;;;;-8.25;47.49;99271.75;4775433;29;20574;-77
2023/02/18 06:32:00;;;;;;;22.92;10.70;;;;;;;-8.16;47.55;99276.91;4775780;29;20081;-78
2023/02/18 06:34:26;;;;;;;23.75;11.25;;;;;;;-8.09;47.73;99273.38;4789902;29;20078;-78
2023/02/18 06:36:52;;;;;;;27.73;11.95;;;;;;;-7.84;47.94;99273.22;4790550;29;20039;-77
2023/02/18 06:39:18;;;;;;;27.58;12.23;;;;;;;-7.68;47.53;99274.81;4806282;29;20079;-77
2023/02/18 06:41:43;;;;;;;40.70;12.98;;;;;;;-7.67;46.79;99271.38;4791272;29;20499;-80
2023/02/18 06:44:10;;;;;;;22.52;11.82;;;;;;;-7.48;47.21;99281.63;4776270;29;20047;-78
2023/02/18 06:46:36;;;;;;;31.75;12.50;;;;;;;-7.34;46.59;99269.34;4805889;29;20066;-77
2023/02/18 06:49:02;;;;;;;27.98;12.93;;;;;;;-7.58;45.77;99268.69;4789662;29;20042;-79
2023/02/18 06:51:28;;;;;;;48.65;12.95;;;;;;;-7.43;47.08;99274.63;4805758;29;20042;-79
2023/02/18 06:53:54;;;;;;;24.95;12.00;;;;;;;-7.22;46.90;99263.16;4789991;29;20407;-78
2023/02/18 06:56:20;;;;;;;25.13;12.07;;;;;;;-6.97;46.19;99271.59;4805553;29;20053;-79
2023/02/18 06:58:45;;;;;;;28.92;11.05;;;;;;;-7.15;45.58;99265.69;4774833;29;20047;-79
2023/02/18 07:01:11;;;;;;;21.20;10.95;;;;;;;-7.14;45.21;99262.25;4774724;29;20047;-77
2023/02/18 07:03:37;;;;;;;20.50;11.02;;;;;;;-7.20;45.52;99262.28;4759957;29;20499;-78
2023/02/18 07:06:03;;;;;;;24.17;10.75;;;;;;;-7.34;45.08;99264.16;4760277;29;20049;-76
2023/02/18 07:08:29;;;;;;;23.55;11.80;;;;;;;-6.82;45.81;99267.97;4790562;29;20057;-77
2023/02/18 07:10:56;;;;;;;34.05;13.15;;;;;;;-6.81;45.21;99254.94;4775051;29;20059;-79
2023/02/18 07:13:21;;;;;;;34.60;10.40;;;;;;;-6.75;45.04;99260.06;4790031;29;20046;-80
2023/02/18 07:15:47;;;;;;;23.15;11.45;;;;;;;-6.51;45.14;99252.84;4774982;29;20099;-79
2023/02/18 07:18:13;;;;;;;25.52;11.23;;;;;;;-6.34;44.68;99263.91;4789574;29;20047;-78
2023/02/18 07:20:39;;;;;;;24.35;10.23;;;;;;;-6.23;44.21;99262.03;4760363;29;20142;-79
2023/02/18 07:23:04;;;;;;;23.23;10.40;;;;;;;-6.13;44.22;99261.03;4774695;29;20082;-79
2023/02/18 07:25:30;;;;;;;26.92;11.40;;;;;;;-5.98;43.78;99266.88;4805547;29;20065;-77
2023/02/18 07:27:56;;;;;;;24.92;11.07;;;;;;;-6.42;43.62;99273.56;4789692;29;20047;-78
2023/02/18 07:30:22;;;;;;;24.15;11.82;;;;;;;-6.36;44.50;99266.53;4774526;29;20045;-80
2023/02/18 07:32:48;;;;;;;24.83;11.57;;;;;;;-6.46;44.85;99261.47;4774899;29;20158;-79
2023/02/18 07:35:15;;;;;;;24.10;11.02;;;;;;;-6.74;44.93;99264.38;4790572;29;20046;-79
2023/02/18 07:37:48;;;;;;;21.80;10.27;;;;;;;-6.74;45.61;99282.59;4790872;29;20407;-78
2023/02/18 07:40:19;;;;;;;20.15;10.60;;;;;;;-6.76;45.75;99258.38;4790161;29;20062;-78
2023/02/18 07:42:44;;;;;;;28.48;11.88;;;;;;;-6.70;45.28;99244.41;4805470;29;20415;-78
2023/02/18 07:45:11;;;;;;;27.55;12.20;;;;;;;-6.47;45.27;99276.22;4788925;29;20050;-78
2023/02/18 07:47:37;;;;;;;27.60;12.52;;;;;;;-6.10;45.56;99257.50;4805476;29;20076;-78
2023/02/18 07:50:04;;;;;;;18.38;9.27;;;;;;;-6.02;44.83;99260.84;4805268;29;20090;-78
2023/02/18 07:52:32;;;;;;;43.42;10.32;;;;;;;-6.63;44.66;99264.25;4789698;29;20065;-79
2023/02/18 07:54:58;;;;;;;22.83;9.60;;;;;;;-6.81;45.73;99270.53;4774524;29;20092;-77
2023/02/18 07:57:24;;;;;;;39.75;9.45;;;;;;;-6.79;46.14;99263.59;4805365;29;20419;-78
2023/02/18 07:59:49;;;;;;;20.65;10.75;;;;;;;-6.42;46.06;99261.41;4774508;29;20080;-78
2023/02/18 08:02:24;;;;;;;23.92;9.75;;;;;;;-6.44;45.33;99254.50;4805641;29;20079;-79
2023/02/18 08:04:51;;;;;;;23.02;10.60;;;;;;;-6.29;45.37;99259.50;4759732;29;20521;-77
2023/02/18 08:07:19;;;;;;;17.23;9.20;;;;;;;-6.17;44.73;99255.84;4790107;29;20043;-80
2023/02/18 08:09:45;;;;;;;26.65;10.43;;;;;;;-6.27;45.23;99254.28;4808555;29;20054;-80
2023/02/18 08:12:11;;;;;;;18.73;10.20;;;;;;;-6.34;45.21;99250.91;4792443;29;20381;-80
2023/02/18 08:14:37;;;;;;;26.00;11.30;;;;;;;-6.23;45.80;99258.56;4777491;29;20141;-79
2023/02/18 08:17:03;;;;;;;24.73;11.43;;;;;;;-5.89;45.77;99253.69;4763597;29;20045;-78
2023/02/18 08:19:28;;;;;;;18.48;10.52;;;;;;;-5.40;45.22;99247.69;4758634;30;20150;-77
2023/02/18 08:21:55;;;;;;;26.92;12.07;;;;;;;-4.95;44.53;99260.78;4773363;30;20209;-78
2023/02/18 08:24:20;;;;;;;25.83;10.95;;;;;;;-4.64;43.28;99248.88;4773503;30;20056;-79
2023/02/18 08:26:46;;;;;;;22.40;11.27;;;;;;;-4.56;42.48;99242.63;4771029;30;20502;-78
2023/02/18 08:29:12;;;;;;;23.55;11.23;;;;;;;-4.48;42.19;99246.81;4770441;30;20069;-78
2023/02/18 08:31:38;;;;;;;29.08;11.48;;;;;;;-4.59;42.48;99242.69;4770934;30;20052;-79
2023/02/18 08:34:03;;;;;;;25.20;11.82;;;;;;;-4.65;42.94;99243.69;4755706;30;20554;-79
2023/02/18 08:36:29;;;;;;;20.48;10.65;;;;;;;-4.41;42.62;99242.31;4755606;30;20084;-79
2023/02/18 08:38:56;;;;;;;27.15;12.02;;;;;;;-4.11;42.96;99245.16;4770574;30;20625;-79
2023/02/18 08:41:22;;;;;;;23.10;11.27;;;;;;;-4.10;42.84;99241.66;4755065;30;20515;-78
2023/02/18 08:43:48;;;;;;;20.15;10.30;;;;;;;-3.85;41.94;99227.16;4755589;30;20139;-79
2023/02/18 08:46:15;;;;;;;21.48;10.57;;;;;;;-3.59;41.67;99229.13;4770577;30;20146;-79
2023/02/18 08:48:41;;;;;;;24.20;11.75;;;;;;;-3.37;41.41;99226.84;4770213;30;20052;-79
2023/02/18 08:51:16;;;;;;;20.48;11.02;;;;;;;-3.50;40.43;99230.66;4783989;29;20104;-79
2023/02/18 08:53:41;;;;;;;24.20;10.60;;;;;;;-3.28;41.44;99223.13;4792078;29;20491;-80
2023/02/18 08:56:08;;;;;;;19.73;10.93;;;;;;;-3.11;41.23;99241.00;4776894;29;20054;-79
2023/02/18 08:58:36;;;;;;;28.85;13.00;;;;;;;-3.24;40.81;99237.84;4762188;29;20045;-79
2023/02/18 09:01:05;;;;;;;25.35;13.18;;;;;;;-3.26;41.04;99230.03;4777085;29;20081;-80
2023/02/18 09:03:31;;;;;;;31.80;14.20;;;;;;;-3.60;40.82;99223.97;4792065;29;20061;-80
2023/02/18 09:05:59;;;;;;;31.48;13.40;;;;;;;-3.69;41.84;99225.03;4791627;29;20055;-79
2023/02/18 09:08:25;;;;;;;26.55;11.63;;;;;;;-3.63;41.83;99230.09;4761869;29;20073;-79
2023/02/18 09:10:55;;;;;;;30.73;13.10;;;;;;;-3.38;40.93;99230.38;4776994;29;20046;-78
2023/02/18 09:13:21;;;;;;;26.42;12.73;;;;;;;-3.12;41.42;99234.94;4792054;29;20058;-80
2023/02/18 09:15:56;;;;;;;29.05;12.02;;;;;;;-2.81;41.18;99223.63;4776508;29;20530;-77
2023/02/18 09:18:21;;;;;;;27.85;12.43;;;;;;;-2.95;40.57;99226.63;4776425;29;20428;-79
2023/02/18 09:20:47;;;;;;;28.27;11.40;;;;;;;-2.67;40.57;99226.72;4776870;29;20054;-79
2023/02/18 09:23:14;;;;;;;24.75;10.73;;;;;;;-2.40;40.64;99225.06;4761522;29;20058;-80
2023/02/18 09:25:40;;;;;;;25.60;11.70;;;;;;;-2.26;40.27;99217.66;4777763;29;20047;-79
2023/02/18 09:28:06;;;;;;;19.73;10.27;;;;;;;-2.22;39.69;99208.81;4808102;29;20059;-79
2023/02/18 09:30:31;;;;;;;19.27;10.45;;;;;;;-2.31;38.95;99216.94;4761648;29;20051;-78
2023/02/18 09:32:57;;;;;;;26.02;11.35;;;;;;;-2.14;39.43;99210.31;4791014;29;20046;-80
2023/02/18 09:35:23;;;;;;;26.80;12.85;;;;;;;-2.39;39.84;99221.53;4772675;30;20140;-77
2023/02/18 09:37:49;;;;;;;30.88;10.98;;;;;;;-2.36;40.72;99213.59;4789486;30;20496;-78
2023/02/18 09:40:25;;;;;;;23.48;11.05;;;;;;;-2.18;39.74;99208.69;4804058;29;20058;-80
2023/02/18 09:42:55;;;;;;;28.35;11.73;;;;;;;-2.41;39.98;99217.25;4777470;30;20408;-78
2023/02/18 09:45:22;;;;;;;27.25;12.65;;;;;;;-3.06;40.42;99218.19;4773721;30;20082;-80
2023/02/18 09:47:50;;;;;;;23.88;11.70;;;;;;;-3.02;41.54;99230.28;4789317;30;20062;-79
2023/02/18 09:50:21;;;;;;;24.13;10.95;;;;;;;-3.10;41.46;99221.78;4760170;30;20047;-80
2023/02/18 09:52:47;;;;;;;34.05;11.77;;;;;;;-3.26;42.41;99221.34;4793336;30;20119;-79
2023/02/18 09:55:15;;;;;;;24.65;11.68;;;;;;;-3.00;41.74;99223.28;4773386;30;20516;-77
2023/02/18 09:57:49;;;;;;;24.15;12.52;;;;;;;-2.63;41.56;99217.88;4789152;30;20078;-78
2023/02/18 10:00:35;;;;;;;28.13;11.05;;;;;;;-2.40;41.43;99225.06;4757833;30;20417;-77
2023/02/18 10:03:06;;;;;;;23.13;11.80;;;;;;;-2.40;41.00;99219.84;4758619;30;20134;-79
2023/02/18 10:05:35;;;;;;;23.17;11.32;;;;;;;-2.22;41.06;99213.16;4773449;30;20055;-79
2023/02/18 10:08:23;;;;;;;29.23;13.45;;;;;;;-2.57;40.01;99220.31;4743423;30;20043;-76
2023/02/18 10:10:49;;;;;;;28.75;13.18;;;;;;;-2.92;40.88;99212.59;4772554;30;20134;-77
2023/02/18 10:13:24;;;;;;;21.35;10.07;;;;;;;-3.56;41.60;99210.78;4772706;30;20147;-76
2023/02/18 10:15:51;;;;;;;29.15;14.35;;;;;;;-3.92;42.41;99213.38;4788984;30;20399;-76
2023/02/18 10:18:47;;;;;;;30.77;12.60;;;;;;;-4.79;43.76;99215.28;4757964;30;20531;-78
2023/02/18 10:21:25;;;;;;;28.20;12.45;;;;;;;-4.92;44.71;99213.81;4757557;30;20525;-82
2023/02/18 10:24:00;;;;;;;32.70;14.45;;;;;;;-4.37;44.75;99207.44;4787670;29;20158;-79
2023/02/18 10:26:29;;;;;;;52.47;18.02;;;;;;;-4.66;44.45;99205.47;4756821;30;20055;-79
2023/02/18 10:28:56;;;;;;;37.25;15.88;;;;;;;-4.47;44.71;99200.72;4742103;29;20055;-77
2023/02/18 10:31:31;;;;;;;36.30;16.23;;;;;;;-4.13;43.89;99207.81;4786844;30;20506;-77
2023/02/18 10:34:18;;;;;;;33.83;13.70;;;;;;;-4.32;43.80;99202.16;4772443;30;20085;-77
2023/02/18 10:36:46;;;;;;;37.55;14.40;;;;;;;-4.67;43.89;99204.59;4786765;29;20071;-77
2023/02/18 10:39:31;;;;;;;28.67;14.02;;;;;;;-4.38;44.65;99210.94;4742304;30;20050;-76
2023/02/18 10:42:10;;;;;;;29.20;13.45;;;;;;;-3.95;43.97;99209.97;4786717;30;20051;-77
2023/02/18 10:44:50;;;;;;;22.65;11.48;;;;;;;-3.64;43.33;99204.88;4772363;30;20054;-78
2023/02/18 10:47:29;;;;;;;29.52;13.32;;;;;;;-3.41;42.35;99212.16;4758197;30;20055;-77
2023/02/18 10:49:58;;;;;;;29.42;13.05;;;;;;;-3.93;42.88;99216.03;4786416;30;20059;-77
2023/02/18 10:52:28;;;;;;;20.33;9.00;;;;;;;-4.36;42.79;99211.78;4773746;29;20066;-77
2023/02/18 10:55:03;;;;;;;26.83;12.93;;;;;;;-4.60;44.04;99225.34;4775955;30;20051;-77
2023/02/18 10:57:30;;;;;;;23.30;12.52;;;;;;;-3.99;44.17;99213.56;4771219;30;20043;-79
2023/02/18 11:00:23;;;;;;;20.00;10.45;;;;;;;-3.84;42.56;99212.34;4771493;30;20063;-78
2023/02/18 11:03:18;;;;;;;26.50;13.15;;;;;;;-3.91;43.14;99222.09;4771807;30;20142;-78
2023/02/18 11:05:46;;;;;;;24.55;11.90;;;;;;;-3.57;42.35;99214.28;4791078;30;20046;-76
2023/02/18 11:08:20;;;;;;;27.63;12.20;;;;;;;-3.53;42.08;99220.31;4771590;30;20053;-78
2023/02/18 11:10:48;;;;;;;34.10;13.35;;;;;;;-3.52;42.12;99222.00;4786323;30;20047;-78
2023/02/18 11:13:17;;;;;;;18.00;9.10;;;;;;;-3.93;41.83;99214.28;4771420;30;20047;-77
2023/02/18 11:15:57;;;;;;;22.50;12.48;;;;;;;-4.06;42.33;99222.41;4773779;29;20055;-81
2023/02/18 11:18:35;;;;;;;23.63;11.48;;;;;;;-4.46;42.66;99225.91;4789608;29;20047;-75
2023/02/18 11:21:05;;;;;;;32.78;12.55;;;;;;;-4.18;43.13;99224.41;4774214;29;20046;-77
2023/02/18 11:23:44;;;;;;;29.20;13.43;;;;;;;-3.63;42.77;99221.41;4801395;29;20070;-77
2023/02/18 11:26:15;;;;;;;35.05;14.40;;;;;;;-3.37;42.22;99229.47;4786705;30;20047;-81